createdAt,value
2023-03-31T00:01:15.319Z,46.95
2023-03-31T00:03:44.520Z,48.38
2023-03-31T00:06:18.900Z,47.97
2023-03-31T00:08:51.637Z,47.04
2023-03-31T00:11:22.043Z,46.42
2023-03-31T00:13:50.702Z,47.01
2023-03-31T00:16:19.733Z,46.64
2023-03-31T00:18:51.044Z,46.97
2023-03-31T00:21:29.727Z,47.31
2023-03-31T00:24:04.558Z,46.98
2023-03-31T00:26:34.754Z,46.97
2023-03-31T00:29:05.412Z,46.96
2023-03-31T00:31:34.510Z,46.59
2023-03-31T00:34:03.060Z,46.03
2023-03-31T00:36:32.217Z,47.29
2023-03-31T00:39:08.243Z,47.37
2023-03-31T00:41:39.301Z,47.30
2023-03-31T00:44:22.915Z,47.07
2023-03-31T00:47:13.021Z,47.77
2023-03-31T00:49:45.636Z,48.58
2023-03-31T00:52:19.520Z,48.10
2023-03-31T00:54:58.736Z,47.25
2023-03-31T00:57:29.425Z,47.49
2023-03-31T01:00:12.659Z,47.23
2023-03-31T01:02:52.582Z,47.95
2023-03-31T01:05:26.716Z,48.71
2023-03-31T01:07:56.883Z,47.13
2023-03-31T01:10:25.945Z,46.74
2023-03-31T01:12:56.034Z,46.69
2023-03-31T01:15:24.517Z,46.90
2023-03-31T01:17:55.919Z,47.28
2023-03-31T01:20:48.378Z,47.91
2023-03-31T01:23:38.585Z,49.38
2023-03-31T01:26:50.761Z,49.96
2023-03-31T01:29:49.127Z,48.46
2023-03-31T01:32:48.239Z,48.83
2023-03-31T01:36:12.306Z,50.69
2023-03-31T01:39:01.197Z,49.87
2023-03-31T01:41:48.712Z,50.07
2023-03-31T01:44:26.162Z,49.89
2023-03-31T01:47:02.320Z,50.18
2023-03-31T01:49:42.126Z,50.31
2023-03-31T01:52:44.060Z,48.99
2023-03-31T01:55:19.670Z,48.69
2023-03-31T01:57:54.491Z,50.73
2023-03-31T02:00:29.984Z,50.18
2023-03-31T02:03:17.234Z,49.26
2023-03-31T02:06:12.579Z,48.08
2023-03-31T02:08:47.530Z,48.50
2023-03-31T02:11:16.877Z,48.61
2023-03-31T02:13:47.246Z,49.26
2023-03-31T02:16:24.585Z,48.80
2023-03-31T02:19:03.997Z,48.98
2023-03-31T02:21:34.687Z,49.13
2023-03-31T02:24:09.413Z,49.64
2023-03-31T02:26:49.407Z,49.34
2023-03-31T02:29:17.972Z,48.41
2023-03-31T02:31:52.798Z,49.03
2023-03-31T02:34:21.790Z,48.71
2023-03-31T02:36:50.728Z,48.65
2023-03-31T02:39:24.970Z,49.11
2023-03-31T02:41:54.642Z,49.57
2023-03-31T02:44:23.714Z,49.03
2023-03-31T02:46:52.647Z,49.06
2023-03-31T02:49:21.751Z,49.43
2023-03-31T02:52:15.859Z,48.80
2023-03-31T02:54:59.624Z,48.55
2023-03-31T02:57:41.625Z,48.19
2023-03-31T03:00:32.101Z,48.03
2023-03-31T03:03:16.515Z,47.93
2023-03-31T03:05:54.907Z,48.62
2023-03-31T03:08:37.702Z,48.04
2023-03-31T03:11:32.180Z,49.61
2023-03-31T03:14:21.238Z,48.53
2023-03-31T03:17:23.603Z,48.86
2023-03-31T03:19:58.818Z,48.49
2023-03-31T03:22:27.632Z,48.08
2023-03-31T03:24:56.292Z,48.81
2023-03-31T03:27:24.815Z,48.27
2023-03-31T03:29:53.218Z,48.59
2023-03-31T03:32:21.666Z,49.68
2023-03-31T03:34:50.230Z,49.65
2023-03-31T03:37:19.585Z,49.59
2023-03-31T03:39:48.140Z,49.38
2023-03-31T03:42:16.897Z,48.54
2023-03-31T03:44:45.414Z,48.79
2023-03-31T03:47:14.106Z,49.08
2023-03-31T03:49:42.672Z,48.68
2023-03-31T03:52:11.152Z,48.30
2023-03-31T03:54:39.571Z,48.49
2023-03-31T03:57:07.963Z,48.99
2023-03-31T03:59:36.406Z,48.64
2023-03-31T04:02:04.954Z,48.65
2023-03-31T04:04:33.637Z,48.43
2023-03-31T04:07:02.201Z,48.38
2023-03-31T04:09:30.923Z,48.44
2023-03-31T04:11:59.439Z,48.47
2023-03-31T04:14:27.915Z,48.28
2023-03-31T04:16:58.516Z,48.49
2023-03-31T04:19:27.602Z,48.36
2023-03-31T04:22:02.664Z,48.01
2023-03-31T04:24:32.790Z,48.37
2023-03-31T04:27:03.206Z,48.27
2023-03-31T04:29:33.617Z,48.46
2023-03-31T04:32:03.011Z,48.28
2023-03-31T04:34:37.415Z,48.63
2023-03-31T04:37:06.040Z,48.23
2023-03-31T04:39:34.719Z,48.39
2023-03-31T04:42:03.369Z,48.45
2023-03-31T04:44:31.817Z,47.96
2023-03-31T04:47:03.248Z,48.52
2023-03-31T04:49:33.685Z,49.02
2023-03-31T04:52:02.232Z,49.04
2023-03-31T04:54:30.776Z,48.79
2023-03-31T04:56:59.218Z,48.94
2023-03-31T04:59:27.735Z,49.57
2023-03-31T05:01:56.293Z,49.47
2023-03-31T05:04:24.844Z,49.84
2023-03-31T05:06:53.508Z,49.98
2023-03-31T05:09:22.158Z,49.23
2023-03-31T05:11:50.652Z,50.01
2023-03-31T05:14:19.482Z,50.58
2023-03-31T05:16:47.956Z,50.60
2023-03-31T05:19:18.318Z,51.08
2023-03-31T05:21:46.817Z,49.99
2023-03-31T05:24:15.272Z,49.75
2023-03-31T05:26:48.445Z,50.54
2023-03-31T05:29:16.874Z,49.70
2023-03-31T05:31:45.981Z,49.57
2023-03-31T05:34:15.823Z,49.74
2023-03-31T05:36:44.416Z,48.95
2023-03-31T05:39:12.791Z,49.33
2023-03-31T05:41:41.245Z,49.38
2023-03-31T05:44:09.736Z,49.10
2023-03-31T05:46:38.559Z,49.29
2023-03-31T05:49:08.158Z,49.24
2023-03-31T05:51:36.686Z,49.94
2023-03-31T05:54:06.429Z,49.31
2023-03-31T05:56:35.043Z,49.86
2023-03-31T05:59:05.234Z,50.02
2023-03-31T06:01:34.000Z,50.29
2023-03-31T06:04:02.546Z,49.25
2023-03-31T06:06:34.026Z,49.89
2023-03-31T06:09:05.070Z,50.82
2023-03-31T06:11:33.470Z,51.55
2023-03-31T06:14:01.892Z,54.99
2023-03-31T06:16:30.588Z,56.69
2023-03-31T06:18:59.180Z,54.06
2023-03-31T06:21:27.710Z,52.07
2023-03-31T06:23:58.152Z,51.49
2023-03-31T06:26:27.875Z,51.68
2023-03-31T06:28:56.469Z,51.94
2023-03-31T06:31:25.528Z,51.85
2023-03-31T06:33:54.053Z,51.14
2023-03-31T06:36:22.803Z,52.39
2023-03-31T06:38:51.435Z,51.70
2023-03-31T06:41:21.131Z,53.28
2023-03-31T06:43:50.023Z,51.98
2023-03-31T06:46:18.862Z,51.52
2023-03-31T06:48:47.421Z,53.36
2023-03-31T06:51:16.393Z,52.08
2023-03-31T06:53:44.883Z,51.69
2023-03-31T06:56:13.368Z,53.21
2023-03-31T06:58:41.914Z,53.24
2023-03-31T07:01:11.833Z,52.42
2023-03-31T07:03:40.875Z,52.36
2023-03-31T07:06:09.425Z,52.69
2023-03-31T07:08:37.910Z,51.08
2023-03-31T07:11:06.739Z,51.20
2023-03-31T07:13:35.524Z,52.10
2023-03-31T07:16:05.242Z,53.24
2023-03-31T07:18:35.660Z,50.91
2023-03-31T07:21:07.952Z,55.50
2023-03-31T07:23:38.077Z,54.00
2023-03-31T07:26:06.722Z,52.39
2023-03-31T07:28:35.343Z,52.69
2023-03-31T07:31:10.965Z,53.65
2023-03-31T07:33:39.782Z,53.94
2023-03-31T07:36:13.323Z,53.09
2023-03-31T07:38:46.755Z,55.78
2023-03-31T07:41:18.944Z,53.54
2023-03-31T07:43:47.622Z,52.51
2023-03-31T07:46:24.989Z,53.33
2023-03-31T07:48:54.902Z,52.01
2023-03-31T07:51:26.560Z,51.50
2023-03-31T07:53:55.181Z,51.09
2023-03-31T07:56:24.905Z,51.12
2023-03-31T07:58:56.076Z,50.56
2023-03-31T08:01:26.646Z,50.29
2023-03-31T08:03:56.101Z,50.11
2023-03-31T08:06:26.822Z,50.79
2023-03-31T08:08:56.218Z,50.98
2023-03-31T08:11:25.996Z,51.02
2023-03-31T08:13:54.619Z,50.42
2023-03-31T08:16:23.171Z,49.80
2023-03-31T08:18:51.668Z,50.17
2023-03-31T08:21:22.281Z,49.72
2023-03-31T08:23:53.574Z,49.30
2023-03-31T08:26:24.332Z,49.45
2023-03-31T08:28:53.896Z,49.24
2023-03-31T08:31:25.984Z,49.43
2023-03-31T08:33:56.063Z,49.53
2023-03-31T08:36:25.997Z,49.24
2023-03-31T08:38:54.773Z,49.98
2023-03-31T08:41:41.728Z,49.41
2023-03-31T08:44:16.500Z,49.27
2023-03-31T08:46:45.340Z,49.33
2023-03-31T08:49:16.941Z,48.98
2023-03-31T08:51:50.546Z,49.91
2023-03-31T08:54:32.880Z,49.78
2023-03-31T08:57:03.887Z,48.77
2023-03-31T08:59:37.565Z,48.91
2023-03-31T09:02:13.557Z,48.65
2023-03-31T09:05:12.912Z,48.04
2023-03-31T09:07:48.912Z,47.71
2023-03-31T09:10:35.962Z,47.55
2023-03-31T09:13:10.441Z,47.86
2023-03-31T09:16:02.596Z,47.56
2023-03-31T09:18:36.740Z,47.58
2023-03-31T09:21:13.220Z,48.17
2023-03-31T09:23:53.793Z,47.66
2023-03-31T09:26:27.498Z,47.72
2023-03-31T09:28:59.347Z,47.90
2023-03-31T09:31:28.555Z,47.19
2023-03-31T09:34:01.864Z,47.14
2023-03-31T09:36:30.862Z,47.57
2023-03-31T09:38:59.331Z,47.15
2023-03-31T09:41:27.880Z,46.56
2023-03-31T09:43:56.459Z,46.17
2023-03-31T09:46:30.941Z,46.29
2023-03-31T09:49:15.404Z,45.31
2023-03-31T09:51:52.872Z,45.19
2023-03-31T09:54:32.095Z,44.82
2023-03-31T09:57:00.688Z,45.25
2023-03-31T09:59:34.874Z,44.78
2023-03-31T10:02:28.476Z,44.26
2023-03-31T10:04:57.187Z,44.66
2023-03-31T10:07:26.399Z,44.49
2023-03-31T10:09:56.396Z,44.03
2023-03-31T10:12:29.224Z,45.62
2023-03-31T10:15:28.029Z,44.61
2023-03-31T10:17:58.646Z,43.84
2023-03-31T10:20:30.049Z,44.14
2023-03-31T10:23:03.311Z,45.12
2023-03-31T10:25:33.842Z,44.35
2023-03-31T10:28:03.146Z,43.88
2023-03-31T10:30:37.971Z,43.47
2023-03-31T10:33:23.161Z,44.53
2023-03-31T10:36:15.588Z,43.87
2023-03-31T10:38:48.180Z,45.69
2023-03-31T10:41:25.801Z,46.37
2023-03-31T10:43:56.604Z,45.11
2023-03-31T10:46:52.673Z,45.56
2023-03-31T10:49:21.183Z,44.28
2023-03-31T10:52:01.246Z,45.27
2023-03-31T10:54:29.708Z,45.74
2023-03-31T10:57:01.642Z,46.02
2023-03-31T10:59:47.912Z,44.52
2023-03-31T11:02:35.475Z,45.21
2023-03-31T11:05:22.569Z,43.78
2023-03-31T11:08:13.392Z,44.34
2023-03-31T11:10:58.855Z,44.59
2023-03-31T11:13:41.199Z,43.95
2023-03-31T11:16:19.293Z,43.48
2023-03-31T11:18:56.917Z,43.36
2023-03-31T11:21:52.288Z,43.96
2023-03-31T11:24:40.661Z,45.01
2023-03-31T11:27:44.660Z,44.20
2023-03-31T11:30:25.253Z,43.63
2023-03-31T11:33:02.811Z,43.31
2023-03-31T11:35:50.925Z,43.53
2023-03-31T11:38:48.062Z,43.18
2023-03-31T11:41:23.293Z,42.54
2023-03-31T11:43:55.815Z,43.03
2023-03-31T11:46:30.961Z,42.71
2023-03-31T11:49:06.560Z,43.55
2023-03-31T11:52:17.874Z,42.81
2023-03-31T11:54:48.973Z,44.24
2023-03-31T11:57:23.957Z,43.51
2023-03-31T12:00:06.450Z,42.98
2023-03-31T12:02:57.908Z,42.60
2023-03-31T12:05:30.660Z,42.63
2023-03-31T12:08:33.126Z,42.35
2023-03-31T12:11:13.318Z,42.34
2023-03-31T12:13:53.291Z,42.08
2023-03-31T12:16:46.234Z,43.56
2023-03-31T12:19:22.566Z,42.67
2023-03-31T12:22:14.402Z,42.79
2023-03-31T12:24:43.027Z,42.76
2023-03-31T12:27:33.606Z,43.97
2023-03-31T12:30:10.353Z,43.90
2023-03-31T12:32:48.869Z,42.50
2023-03-31T12:35:20.213Z,42.42
2023-03-31T12:38:00.096Z,43.58
2023-03-31T12:40:54.950Z,42.67
2023-03-31T12:43:43.839Z,42.01
2023-03-31T12:46:30.567Z,42.02
2023-03-31T12:49:17.859Z,42.07
2023-03-31T12:51:55.277Z,42.69
2023-03-31T12:54:48.822Z,41.86
2023-03-31T12:57:27.484Z,43.00
2023-03-31T13:00:12.183Z,42.30
2023-03-31T13:02:41.319Z,42.58
2023-03-31T13:05:37.961Z,41.97
2023-03-31T13:08:10.543Z,43.53
2023-03-31T13:10:59.215Z,43.30
2023-03-31T13:13:27.925Z,44.68
2023-03-31T13:15:59.791Z,43.18
2023-03-31T13:18:33.564Z,44.43
2023-03-31T13:21:08.304Z,44.30
2023-03-31T13:23:37.839Z,43.92
2023-03-31T13:26:06.954Z,43.48
2023-03-31T13:28:43.844Z,45.93
2023-03-31T13:31:14.690Z,45.37
2023-03-31T13:33:57.532Z,45.50
2023-03-31T13:36:32.431Z,45.43
2023-03-31T13:39:16.583Z,47.06
2023-03-31T13:41:53.495Z,47.24
2023-03-31T13:44:40.632Z,47.67
2023-03-31T13:47:35.076Z,48.32
2023-03-31T13:50:31.641Z,46.22
2023-03-31T13:53:27.968Z,46.15
2023-03-31T13:56:24.323Z,46.42
2023-03-31T13:59:30.009Z,46.54
2023-03-31T14:02:06.727Z,47.00
2023-03-31T14:04:41.113Z,46.00
2023-03-31T14:07:16.967Z,45.82
2023-03-31T14:09:52.056Z,46.47
2023-03-31T14:12:31.395Z,46.17
2023-03-31T14:15:00.322Z,47.42
2023-03-31T14:17:35.926Z,46.44
2023-03-31T14:20:22.945Z,46.08
2023-03-31T14:23:32.180Z,46.92
2023-03-31T14:26:34.621Z,45.90
2023-03-31T14:29:15.277Z,45.33
2023-03-31T14:32:03.225Z,46.15
2023-03-31T14:34:32.205Z,47.01
2023-03-31T14:37:04.696Z,46.87
2023-03-31T14:39:40.451Z,46.52
2023-03-31T14:42:15.892Z,46.14
2023-03-31T14:44:47.866Z,46.70
2023-03-31T14:47:21.963Z,45.44
2023-03-31T14:50:12.930Z,45.21
2023-03-31T14:52:50.062Z,44.81
2023-03-31T14:55:26.503Z,44.75
2023-03-31T14:58:02.951Z,44.97
2023-03-31T15:00:34.435Z,45.58
2023-03-31T15:03:07.743Z,46.05
2023-03-31T15:05:39.708Z,44.43
2023-03-31T15:08:14.140Z,44.88
2023-03-31T15:10:54.071Z,46.33
2023-03-31T15:13:33.967Z,45.96
2023-03-31T15:16:41.914Z,45.31
2023-03-31T15:19:18.798Z,44.10
2023-03-31T15:21:56.156Z,44.44
2023-03-31T15:24:24.761Z,44.39
2023-03-31T15:27:15.007Z,45.33
2023-03-31T15:29:51.149Z,45.58
2023-03-31T15:32:27.199Z,44.73
2023-03-31T15:35:02.443Z,44.48
2023-03-31T15:37:44.004Z,44.67
2023-03-31T15:40:24.464Z,45.76
2023-03-31T15:43:27.841Z,45.17
2023-03-31T15:45:58.668Z,46.44
2023-03-31T15:48:33.391Z,46.56
2023-03-31T15:51:20.807Z,44.88
2023-03-31T15:53:55.899Z,46.55
2023-03-31T15:56:44.457Z,47.18
2023-03-31T15:59:55.350Z,45.67
2023-03-31T16:02:29.057Z,47.18
2023-03-31T16:04:59.492Z,45.56
2023-03-31T16:07:34.680Z,45.30
2023-03-31T16:10:08.818Z,45.99
2023-03-31T16:12:49.201Z,45.30
2023-03-31T16:15:28.025Z,45.06
2023-03-31T16:18:10.079Z,45.83
2023-03-31T16:20:46.054Z,46.66
2023-03-31T16:23:18.097Z,45.92
2023-03-31T16:25:47.335Z,45.07
2023-03-31T16:28:21.950Z,44.77
2023-03-31T16:30:50.592Z,45.30
2023-03-31T16:33:23.087Z,45.74
2023-03-31T16:35:55.916Z,46.32
2023-03-31T16:38:26.650Z,47.14
2023-03-31T16:40:58.873Z,45.90
2023-03-31T16:43:29.008Z,45.77
2023-03-31T16:45:59.383Z,45.18
2023-03-31T16:48:30.058Z,46.46
2023-03-31T16:50:59.034Z,45.02
2023-03-31T16:53:36.105Z,46.77
2023-03-31T16:56:09.709Z,45.91
2023-03-31T16:58:38.984Z,47.17
2023-03-31T17:01:08.924Z,47.38
2023-03-31T17:03:39.720Z,46.69
2023-03-31T17:06:11.324Z,46.86
2023-03-31T17:08:40.368Z,46.00
2023-03-31T17:11:12.607Z,47.63
2023-03-31T17:13:42.570Z,47.79
2023-03-31T17:18:43.795Z,47.08
2023-03-31T17:21:14.862Z,47.24
2023-03-31T17:23:43.326Z,47.29
2023-03-31T17:26:13.054Z,47.15
2023-03-31T17:28:42.539Z,46.21
2023-03-31T17:31:20.503Z,46.12
2023-03-31T17:33:49.142Z,46.47
2023-03-31T17:36:17.837Z,46.70
2023-03-31T17:38:46.345Z,47.76
2023-03-31T17:41:15.612Z,47.00
2023-03-31T17:43:45.613Z,48.53
2023-03-31T17:46:14.219Z,49.46
2023-03-31T17:48:43.622Z,48.35
2023-03-31T17:51:18.267Z,50.43
2023-03-31T17:53:47.888Z,49.31
2023-03-31T17:56:17.606Z,51.04
2023-03-31T17:58:46.761Z,51.20
2023-03-31T18:01:15.421Z,49.63
2023-03-31T18:03:46.150Z,49.22
2023-03-31T18:06:15.339Z,48.92
2023-03-31T18:08:44.444Z,49.35
2023-03-31T18:11:13.387Z,49.56
2023-03-31T18:13:42.018Z,52.19
2023-03-31T18:16:12.725Z,49.18
2023-03-31T18:18:42.294Z,48.87
2023-03-31T18:21:13.108Z,48.96
2023-03-31T18:23:41.712Z,51.04
2023-03-31T18:26:12.429Z,51.32
2023-03-31T18:28:41.261Z,49.81
2023-03-31T18:31:10.633Z,51.87
2023-03-31T18:33:39.913Z,51.08
2023-03-31T18:36:15.243Z,50.31
2023-03-31T18:38:45.250Z,51.16
2023-03-31T18:41:14.892Z,50.38
2023-03-31T18:43:43.571Z,50.88
2023-03-31T18:46:11.984Z,51.68
2023-03-31T18:48:42.033Z,52.19
2023-03-31T18:51:11.064Z,51.23
2023-03-31T18:53:39.670Z,52.55
2023-03-31T18:56:08.106Z,52.10
2023-03-31T18:58:37.342Z,51.33
2023-03-31T19:01:05.965Z,52.76
2023-03-31T19:03:34.510Z,51.78
2023-03-31T19:06:10.214Z,52.34
2023-03-31T19:08:39.117Z,52.10
2023-03-31T19:11:13.125Z,50.43
2023-03-31T19:13:42.879Z,51.25
2023-03-31T19:16:13.129Z,50.07
2023-03-31T19:18:43.123Z,51.97
2023-03-31T19:21:11.969Z,52.14
2023-03-31T19:23:40.643Z,52.29
2023-03-31T19:26:13.437Z,52.22
2023-03-31T19:28:42.344Z,52.76
2023-03-31T19:31:11.240Z,50.90
2023-03-31T19:33:39.648Z,51.43
2023-03-31T19:36:08.252Z,53.22
2023-03-31T19:38:36.760Z,51.80
2023-03-31T19:41:05.954Z,53.21
2023-03-31T19:43:34.597Z,52.75
2023-03-31T19:46:03.481Z,53.10
2023-03-31T19:48:33.586Z,51.36
2023-03-31T19:51:06.268Z,52.38
2023-03-31T19:53:38.332Z,51.54
2023-03-31T19:56:12.766Z,52.09
2023-03-31T19:58:41.341Z,51.87
2023-03-31T20:01:27.330Z,51.50
2023-03-31T20:03:56.496Z,52.07
2023-03-31T20:06:28.442Z,51.76
2023-03-31T20:09:00.912Z,51.33
2023-03-31T20:11:31.978Z,52.28
2023-03-31T20:14:01.837Z,51.62
2023-03-31T20:16:31.232Z,52.73
2023-03-31T20:19:04.279Z,55.31
2023-03-31T20:21:35.652Z,54.12
2023-03-31T20:24:05.642Z,51.61
2023-03-31T20:26:34.790Z,51.74
2023-03-31T20:29:04.041Z,51.30
2023-03-31T20:31:37.391Z,52.05
2023-03-31T20:34:12.475Z,51.72
2023-03-31T20:36:43.226Z,51.74
2023-03-31T20:39:14.710Z,50.60
2023-03-31T20:41:43.600Z,52.92
2023-03-31T20:44:15.829Z,53.16
2023-03-31T20:46:45.019Z,51.58
2023-03-31T20:49:13.913Z,52.30
2023-03-31T20:51:42.649Z,51.44
2023-03-31T20:54:11.833Z,52.23
2023-03-31T20:56:41.354Z,51.57
2023-03-31T20:59:12.816Z,51.40
2023-03-31T21:01:42.537Z,53.11
2023-03-31T21:04:11.875Z,51.52
2023-03-31T21:06:43.775Z,53.48
2023-03-31T21:09:13.598Z,52.08
2023-03-31T21:11:42.139Z,53.74
2023-03-31T21:14:13.231Z,54.27
2023-03-31T21:16:41.734Z,53.35
2023-03-31T21:19:11.062Z,53.24
2023-03-31T21:21:41.193Z,53.07
2023-03-31T21:24:12.325Z,53.95
2023-03-31T21:26:40.789Z,54.11
2023-03-31T21:29:09.273Z,52.30
2023-03-31T21:31:38.007Z,53.14
2023-03-31T21:34:06.454Z,52.40
2023-03-31T21:36:34.998Z,52.43
2023-03-31T21:39:05.006Z,51.07
2023-03-31T21:41:33.567Z,53.17
2023-03-31T21:44:03.237Z,52.15
2023-03-31T21:46:33.506Z,52.23
2023-03-31T21:49:02.874Z,52.64
2023-03-31T21:51:31.480Z,52.81
2023-03-31T21:53:59.906Z,52.44
2023-03-31T21:56:31.844Z,52.24
2023-03-31T21:59:02.388Z,51.82
2023-03-31T22:01:31.494Z,53.52
2023-03-31T22:04:00.587Z,52.79
2023-03-31T22:06:29.395Z,52.66
2023-03-31T22:08:57.888Z,52.54
2023-03-31T22:11:27.027Z,53.51
2023-03-31T22:13:56.673Z,53.91
2023-03-31T22:16:25.286Z,53.51
2023-03-31T22:18:54.629Z,53.37
2023-03-31T22:21:25.490Z,53.28
2023-03-31T22:23:56.760Z,52.71
2023-03-31T22:26:27.060Z,53.20
2023-03-31T22:28:55.909Z,52.62
2023-03-31T22:31:26.313Z,54.44
2023-03-31T22:33:54.950Z,53.27
2023-03-31T22:36:23.371Z,52.36
2023-03-31T22:38:51.818Z,55.22
2023-03-31T22:41:20.502Z,53.87
2023-03-31T22:43:48.929Z,52.48
2023-03-31T22:46:17.334Z,52.29
2023-03-31T22:48:51.066Z,51.97
2023-03-31T22:51:19.588Z,54.35
2023-03-31T22:53:52.571Z,52.83
2023-03-31T22:56:23.021Z,53.71
2023-03-31T22:58:52.583Z,52.79
2023-03-31T23:01:21.829Z,53.21
2023-03-31T23:03:50.690Z,52.40
2023-03-31T23:06:19.212Z,52.17
2023-03-31T23:08:50.816Z,54.60
2023-03-31T23:11:19.385Z,52.31
2023-03-31T23:13:47.991Z,52.43
2023-03-31T23:16:18.047Z,51.83
2023-03-31T23:18:48.358Z,52.38
2023-03-31T23:21:19.514Z,54.08
2023-03-31T23:23:51.242Z,53.02
2023-03-31T23:26:21.270Z,54.03
2023-03-31T23:28:50.666Z,54.69
2023-03-31T23:31:22.175Z,52.42
2023-03-31T23:33:50.795Z,51.29
2023-03-31T23:36:21.202Z,52.80
2023-03-31T23:38:52.961Z,52.86
2023-03-31T23:41:22.685Z,53.83
2023-03-31T23:43:51.238Z,52.84
2023-03-31T23:46:19.775Z,53.25
2023-03-31T23:48:48.587Z,52.48
2023-03-31T23:51:18.783Z,55.24
2023-03-31T23:53:47.427Z,54.36
2023-03-31T23:56:15.846Z,54.86
2023-03-31T23:58:45.158Z,53.59
